SDL weather

Sundsvall-Härnösand Airport
Sundsvall/ Härnösand, Västernorrlands län, Sweden

Public forecast

Using degrees Celsius for public forecast. Weather courtesy of forecast.io.

METAR (pilot weather report)

Retrieved 2019/08/23 12:20 UTC (25 seconds ago):

ESNN 231220Z 26006KT 9999 FEW044 OVC057 18/09 Q1012

TAF (pilot weather forecast)

Forecast is more than 12 hours old.

Retrieved 2016/05/29 09:33 UTC (3 years ago):

TAF TAF ESNN 290830Z 2909/3018 07006KT 9999 SCT045 BECMG 2913/2915 14010KT